sensor_id;sensor_type;location;lat;lon;timestamp;P1;durP1;ratioP1;P2;durP2;ratioP2
24153;SDS011;12312;53.362;-1.518;2023-02-28T00:00:50;19.02;;;10.20;;
24153;SDS011;12312;53.362;-1.518;2023-02-28T00:03:16;18.15;;;9.55;;
24153;SDS011;12312;53.362;-1.518;2023-02-28T00:05:42;19.75;;;9.70;;
24153;SDS011;12312;53.362;-1.518;2023-02-28T00:08:08;38.10;;;9.50;;
24153;SDS011;12312;53.362;-1.518;2023-02-28T00:10:34;13.30;;;7.07;;
24153;SDS011;12312;53.362;-1.518;2023-02-28T00:13:03;14.38;;;7.45;;
24153;SDS011;12312;53.362;-1.518;2023-02-28T00:15:30;14.93;;;8.00;;
24153;SDS011;12312;53.362;-1.518;2023-02-28T00:17:56;15.55;;;8.77;;
24153;SDS011;12312;53.362;-1.518;2023-02-28T00:20:22;14.20;;;8.43;;
24153;SDS011;12312;53.362;-1.518;2023-02-28T00:22:49;17.75;;;9.40;;
24153;SDS011;12312;53.362;-1.518;2023-02-28T00:25:18;29.10;;;10.18;;
24153;SDS011;12312;53.362;-1.518;2023-02-28T00:27:45;21.58;;;11.98;;
24153;SDS011;12312;53.362;-1.518;2023-02-28T00:30:12;23.38;;;10.70;;
24153;SDS011;12312;53.362;-1.518;2023-02-28T00:32:39;26.67;;;12.93;;
24153;SDS011;12312;53.362;-1.518;2023-02-28T00:35:05;23.42;;;12.77;;
24153;SDS011;12312;53.362;-1.518;2023-02-28T00:37:31;186.25;;;21.75;;
24153;SDS011;12312;53.362;-1.518;2023-02-28T00:39:57;31.35;;;15.18;;
24153;SDS011;12312;53.362;-1.518;2023-02-28T00:42:23;37.40;;;15.55;;
24153;SDS011;12312;53.362;-1.518;2023-02-28T00:44:49;38.85;;;17.50;;
24153;SDS011;12312;53.362;-1.518;2023-02-28T00:47:15;43.70;;;18.23;;
24153;SDS011;12312;53.362;-1.518;2023-02-28T00:49:41;43.22;;;20.92;;
24153;SDS011;12312;53.362;-1.518;2023-02-28T00:52:06;41.22;;;19.55;;
24153;SDS011;12312;53.362;-1.518;2023-02-28T00:54:31;38.10;;;19.58;;
24153;SDS011;12312;53.362;-1.518;2023-02-28T00:56:57;34.40;;;16.38;;
24153;SDS011;12312;53.362;-1.518;2023-02-28T00:59:23;27.38;;;14.82;;
24153;SDS011;12312;53.362;-1.518;2023-02-28T01:01:48;42.33;;;21.13;;
24153;SDS011;12312;53.362;-1.518;2023-02-28T01:04:14;44.97;;;21.52;;
24153;SDS011;12312;53.362;-1.518;2023-02-28T01:06:40;46.08;;;20.42;;
24153;SDS011;12312;53.362;-1.518;2023-02-28T01:09:06;43.28;;;20.65;;
24153;SDS011;12312;53.362;-1.518;2023-02-28T01:11:32;54.70;;;17.15;;
24153;SDS011;12312;53.362;-1.518;2023-02-28T01:13:59;112.40;;;20.55;;
24153;SDS011;12312;53.362;-1.518;2023-02-28T01:16:24;30.88;;;15.52;;
24153;SDS011;12312;53.362;-1.518;2023-02-28T01:18:50;23.27;;;12.20;;
24153;SDS011;12312;53.362;-1.518;2023-02-28T01:21:16;24.80;;;13.68;;
24153;SDS011;12312;53.362;-1.518;2023-02-28T01:23:44;212.90;;;25.33;;
24153;SDS011;12312;53.362;-1.518;2023-02-28T01:26:12;24.40;;;11.38;;
24153;SDS011;12312;53.362;-1.518;2023-02-28T01:28:39;23.48;;;13.07;;
24153;SDS011;12312;53.362;-1.518;2023-02-28T01:31:05;24.60;;;13.73;;
24153;SDS011;12312;53.362;-1.518;2023-02-28T01:33:31;26.88;;;14.40;;
24153;SDS011;12312;53.362;-1.518;2023-02-28T01:36:01;23.60;;;13.35;;
24153;SDS011;12312;53.362;-1.518;2023-02-28T01:38:28;20.92;;;11.90;;
24153;SDS011;12312;53.362;-1.518;2023-02-28T01:40:54;21.33;;;13.32;;
24153;SDS011;12312;53.362;-1.518;2023-02-28T01:43:27;20.95;;;11.05;;
24153;SDS011;12312;53.362;-1.518;2023-02-28T01:45:55;20.35;;;12.05;;
24153;SDS011;12312;53.362;-1.518;2023-02-28T01:48:23;21.52;;;10.13;;
24153;SDS011;12312;53.362;-1.518;2023-02-28T01:50:52;18.27;;;9.93;;
24153;SDS011;12312;53.362;-1.518;2023-02-28T01:53:23;14.60;;;8.82;;
24153;SDS011;12312;53.362;-1.518;2023-02-28T01:55:55;14.38;;;8.88;;
24153;SDS011;12312;53.362;-1.518;2023-02-28T01:58:21;15.82;;;8.90;;
24153;SDS011;12312;53.362;-1.518;2023-02-28T02:00:48;15.00;;;8.48;;
24153;SDS011;12312;53.362;-1.518;2023-02-28T02:03:14;12.57;;;8.00;;
24153;SDS011;12312;53.362;-1.518;2023-02-28T02:05:46;16.10;;;7.57;;
24153;SDS011;12312;53.362;-1.518;2023-02-28T02:08:13;11.77;;;6.80;;
24153;SDS011;12312;53.362;-1.518;2023-02-28T02:10:43;10.88;;;7.68;;
24153;SDS011;12312;53.362;-1.518;2023-02-28T02:15:56;75.90;;;8.82;;
24153;SDS011;12312;53.362;-1.518;2023-02-28T02:37:07;25.05;;;13.32;;
24153;SDS011;12312;53.362;-1.518;2023-02-28T02:42:27;22.05;;;12.07;;
24153;SDS011;12312;53.362;-1.518;2023-02-28T02:45:32;27.60;;;13.15;;
24153;SDS011;12312;53.362;-1.518;2023-02-28T02:47:55;25.00;;;13.13;;
24153;SDS011;12312;53.362;-1.518;2023-02-28T02:50:26;23.55;;;11.52;;
24153;SDS011;12312;53.362;-1.518;2023-02-28T02:52:57;28.52;;;13.98;;
24153;SDS011;12312;53.362;-1.518;2023-02-28T02:55:26;31.25;;;13.73;;
24153;SDS011;12312;53.362;-1.518;2023-02-28T02:57:54;32.42;;;14.23;;
24153;SDS011;12312;53.362;-1.518;2023-02-28T03:00:25;30.20;;;14.32;;
24153;SDS011;12312;53.362;-1.518;2023-02-28T03:02:56;32.90;;;15.57;;
24153;SDS011;12312;53.362;-1.518;2023-02-28T03:05:23;30.83;;;13.77;;
24153;SDS011;12312;53.362;-1.518;2023-02-28T03:07:54;30.33;;;13.77;;
24153;SDS011;12312;53.362;-1.518;2023-02-28T03:13:11;34.20;;;13.55;;
24153;SDS011;12312;53.362;-1.518;2023-02-28T03:15:56;30.25;;;13.77;;
24153;SDS011;12312;53.362;-1.518;2023-02-28T03:21:50;22.90;;;10.80;;
24153;SDS011;12312;53.362;-1.518;2023-02-28T03:32:29;19.00;;;8.95;;
24153;SDS011;12312;53.362;-1.518;2023-02-28T03:35:09;18.23;;;8.10;;
24153;SDS011;12312;53.362;-1.518;2023-02-28T03:37:46;14.05;;;7.15;;
24153;SDS011;12312;53.362;-1.518;2023-02-28T03:40:15;10.80;;;6.03;;
24153;SDS011;12312;53.362;-1.518;2023-02-28T03:42:47;13.77;;;7.00;;
24153;SDS011;12312;53.362;-1.518;2023-02-28T03:45:18;16.27;;;7.88;;
24153;SDS011;12312;53.362;-1.518;2023-02-28T03:47:52;14.68;;;7.13;;
24153;SDS011;12312;53.362;-1.518;2023-02-28T03:50:22;11.68;;;6.15;;
24153;SDS011;12312;53.362;-1.518;2023-02-28T03:52:57;11.77;;;6.03;;
24153;SDS011;12312;53.362;-1.518;2023-02-28T03:56:03;13.88;;;6.78;;
24153;SDS011;12312;53.362;-1.518;2023-02-28T03:58:44;16.50;;;8.38;;
24153;SDS011;12312;53.362;-1.518;2023-02-28T04:01:35;18.70;;;7.80;;
24153;SDS011;12312;53.362;-1.518;2023-02-28T04:04:06;15.65;;;8.40;;
24153;SDS011;12312;53.362;-1.518;2023-02-28T04:06:33;21.40;;;9.82;;
24153;SDS011;12312;53.362;-1.518;2023-02-28T04:08:59;22.20;;;10.43;;
24153;SDS011;12312;53.362;-1.518;2023-02-28T04:14:02;26.30;;;11.70;;
24153;SDS011;12312;53.362;-1.518;2023-02-28T04:16:30;35.78;;;13.48;;
24153;SDS011;12312;53.362;-1.518;2023-02-28T04:18:56;31.83;;;13.02;;
24153;SDS011;12312;53.362;-1.518;2023-02-28T04:21:34;36.35;;;14.45;;
24153;SDS011;12312;53.362;-1.518;2023-02-28T04:24:02;40.03;;;15.57;;
24153;SDS011;12312;53.362;-1.518;2023-02-28T04:26:32;41.72;;;17.58;;
24153;SDS011;12312;53.362;-1.518;2023-02-28T04:28:59;44.45;;;18.48;;
24153;SDS011;12312;53.362;-1.518;2023-02-28T04:31:25;48.20;;;18.27;;
24153;SDS011;12312;53.362;-1.518;2023-02-28T04:33:51;35.22;;;16.77;;
24153;SDS011;12312;53.362;-1.518;2023-02-28T04:36:16;41.95;;;18.63;;
24153;SDS011;12312;53.362;-1.518;2023-02-28T04:38:45;28.92;;;12.48;;
24153;SDS011;12312;53.362;-1.518;2023-02-28T04:41:14;32.20;;;14.00;;
24153;SDS011;12312;53.362;-1.518;2023-02-28T04:43:40;33.08;;;13.32;;
24153;SDS011;12312;53.362;-1.518;2023-02-28T04:46:06;21.83;;;8.88;;
24153;SDS011;12312;53.362;-1.518;2023-02-28T04:48:33;292.73;;;26.42;;
24153;SDS011;12312;53.362;-1.518;2023-02-28T04:51:10;28.88;;;12.43;;
24153;SDS011;12312;53.362;-1.518;2023-02-28T04:53:37;27.08;;;9.27;;
24153;SDS011;12312;53.362;-1.518;2023-02-28T04:56:04;474.88;;;45.30;;
24153;SDS011;12312;53.362;-1.518;2023-02-28T04:58:31;27.08;;;12.05;;
24153;SDS011;12312;53.362;-1.518;2023-02-28T05:01:01;36.45;;;12.82;;
24153;SDS011;12312;53.362;-1.518;2023-02-28T05:03:28;34.28;;;13.18;;
24153;SDS011;12312;53.362;-1.518;2023-02-28T05:05:53;31.08;;;12.52;;
24153;SDS011;12312;53.362;-1.518;2023-02-28T05:08:19;34.13;;;13.23;;
24153;SDS011;12312;53.362;-1.518;2023-02-28T05:10:44;38.50;;;13.70;;
24153;SDS011;12312;53.362;-1.518;2023-02-28T05:13:13;32.47;;;12.88;;
24153;SDS011;12312;53.362;-1.518;2023-02-28T05:15:38;26.73;;;10.93;;
24153;SDS011;12312;53.362;-1.518;2023-02-28T05:18:04;28.52;;;11.35;;
24153;SDS011;12312;53.362;-1.518;2023-02-28T05:20:29;31.75;;;9.70;;
24153;SDS011;12312;53.362;-1.518;2023-02-28T05:22:55;29.75;;;12.00;;
24153;SDS011;12312;53.362;-1.518;2023-02-28T05:25:22;24.35;;;8.82;;
24153;SDS011;12312;53.362;-1.518;2023-02-28T05:27:48;25.75;;;9.68;;
24153;SDS011;12312;53.362;-1.518;2023-02-28T05:30:14;20.20;;;7.82;;
24153;SDS011;12312;53.362;-1.518;2023-02-28T05:32:40;25.98;;;11.13;;
24153;SDS011;12312;53.362;-1.518;2023-02-28T05:35:08;21.73;;;10.05;;
24153;SDS011;12312;53.362;-1.518;2023-02-28T05:37:35;26.15;;;10.25;;
24153;SDS011;12312;53.362;-1.518;2023-02-28T05:40:01;27.80;;;9.98;;
24153;SDS011;12312;53.362;-1.518;2023-02-28T05:42:30;21.15;;;8.15;;
24153;SDS011;12312;53.362;-1.518;2023-02-28T05:44:55;24.58;;;8.30;;
24153;SDS011;12312;53.362;-1.518;2023-02-28T05:47:21;20.25;;;7.82;;
24153;SDS011;12312;53.362;-1.518;2023-02-28T05:49:46;18.67;;;7.32;;
24153;SDS011;12312;53.362;-1.518;2023-02-28T05:52:12;18.25;;;7.13;;
24153;SDS011;12312;53.362;-1.518;2023-02-28T05:54:37;19.92;;;7.97;;
24153;SDS011;12312;53.362;-1.518;2023-02-28T05:57:02;20.98;;;7.63;;
24153;SDS011;12312;53.362;-1.518;2023-02-28T05:59:28;24.08;;;7.85;;
24153;SDS011;12312;53.362;-1.518;2023-02-28T06:01:53;24.33;;;9.02;;
24153;SDS011;12312;53.362;-1.518;2023-02-28T06:04:19;26.55;;;10.80;;
24153;SDS011;12312;53.362;-1.518;2023-02-28T06:06:48;22.55;;;9.18;;
24153;SDS011;12312;53.362;-1.518;2023-02-28T06:09:15;30.80;;;11.45;;
24153;SDS011;12312;53.362;-1.518;2023-02-28T06:11:40;25.38;;;9.27;;
24153;SDS011;12312;53.362;-1.518;2023-02-28T06:14:06;27.50;;;9.82;;
24153;SDS011;12312;53.362;-1.518;2023-02-28T06:16:33;34.10;;;10.55;;
24153;SDS011;12312;53.362;-1.518;2023-02-28T06:19:00;27.77;;;8.85;;
24153;SDS011;12312;53.362;-1.518;2023-02-28T06:21:27;27.05;;;8.65;;
24153;SDS011;12312;53.362;-1.518;2023-02-28T06:23:53;33.47;;;11.90;;
24153;SDS011;12312;53.362;-1.518;2023-02-28T06:26:19;32.20;;;10.32;;
24153;SDS011;12312;53.362;-1.518;2023-02-28T06:28:45;30.45;;;10.93;;
24153;SDS011;12312;53.362;-1.518;2023-02-28T06:31:12;30.25;;;8.73;;
24153;SDS011;12312;53.362;-1.518;2023-02-28T06:33:41;26.60;;;9.68;;
24153;SDS011;12312;53.362;-1.518;2023-02-28T06:36:07;153.77;;;16.48;;
24153;SDS011;12312;53.362;-1.518;2023-02-28T06:38:34;65.15;;;11.23;;
24153;SDS011;12312;53.362;-1.518;2023-02-28T06:41:01;41.03;;;9.45;;
24153;SDS011;12312;53.362;-1.518;2023-02-28T06:43:28;38.10;;;8.18;;
24153;SDS011;12312;53.362;-1.518;2023-02-28T06:45:55;40.22;;;8.50;;
24153;SDS011;12312;53.362;-1.518;2023-02-28T06:48:22;23.58;;;7.40;;
24153;SDS011;12312;53.362;-1.518;2023-02-28T06:50:48;36.53;;;9.82;;
24153;SDS011;12312;53.362;-1.518;2023-02-28T06:53:13;19.10;;;7.65;;
24153;SDS011;12312;53.362;-1.518;2023-02-28T06:55:39;25.55;;;9.15;;
24153;SDS011;12312;53.362;-1.518;2023-02-28T06:58:05;25.70;;;7.18;;
24153;SDS011;12312;53.362;-1.518;2023-02-28T07:00:42;24.20;;;8.30;;
24153;SDS011;12312;53.362;-1.518;2023-02-28T07:03:09;58.35;;;10.50;;
24153;SDS011;12312;53.362;-1.518;2023-02-28T07:05:35;86.95;;;12.02;;
24153;SDS011;12312;53.362;-1.518;2023-02-28T07:08:01;351.15;;;29.40;;
24153;SDS011;12312;53.362;-1.518;2023-02-28T07:10:29;22.75;;;8.18;;
24153;SDS011;12312;53.362;-1.518;2023-02-28T07:12:54;25.35;;;7.95;;
24153;SDS011;12312;53.362;-1.518;2023-02-28T07:15:20;38.97;;;8.77;;
24153;SDS011;12312;53.362;-1.518;2023-02-28T07:17:45;123.38;;;13.73;;
24153;SDS011;12312;53.362;-1.518;2023-02-28T07:20:11;33.95;;;9.27;;
24153;SDS011;12312;53.362;-1.518;2023-02-28T07:22:37;146.70;;;14.52;;
24153;SDS011;12312;53.362;-1.518;2023-02-28T07:25:04;33.88;;;7.68;;
24153;SDS011;12312;53.362;-1.518;2023-02-28T07:27:29;19.45;;;7.72;;
24153;SDS011;12312;53.362;-1.518;2023-02-28T07:29:55;80.38;;;12.15;;
24153;SDS011;12312;53.362;-1.518;2023-02-28T07:32:20;27.63;;;7.15;;
24153;SDS011;12312;53.362;-1.518;2023-02-28T07:34:46;28.90;;;7.88;;
24153;SDS011;12312;53.362;-1.518;2023-02-28T07:37:12;87.00;;;11.30;;
24153;SDS011;12312;53.362;-1.518;2023-02-28T07:39:37;24.77;;;6.55;;
24153;SDS011;12312;53.362;-1.518;2023-02-28T07:42:06;15.45;;;6.82;;
24153;SDS011;12312;53.362;-1.518;2023-02-28T07:44:35;13.82;;;5.78;;
24153;SDS011;12312;53.362;-1.518;2023-02-28T07:47:05;28.35;;;7.60;;
24153;SDS011;12312;53.362;-1.518;2023-02-28T07:49:34;18.77;;;6.43;;
24153;SDS011;12312;53.362;-1.518;2023-02-28T07:52:06;18.27;;;5.85;;
24153;SDS011;12312;53.362;-1.518;2023-02-28T07:54:32;16.25;;;6.05;;
24153;SDS011;12312;53.362;-1.518;2023-02-28T07:56:58;16.10;;;5.35;;
24153;SDS011;12312;53.362;-1.518;2023-02-28T07:59:24;16.63;;;5.72;;
24153;SDS011;12312;53.362;-1.518;2023-02-28T08:01:50;17.83;;;7.78;;
24153;SDS011;12312;53.362;-1.518;2023-02-28T08:04:16;17.40;;;7.22;;
24153;SDS011;12312;53.362;-1.518;2023-02-28T08:06:42;18.50;;;7.18;;
24153;SDS011;12312;53.362;-1.518;2023-02-28T08:09:08;15.52;;;6.70;;
24153;SDS011;12312;53.362;-1.518;2023-02-28T08:11:34;11.07;;;5.00;;
24153;SDS011;12312;53.362;-1.518;2023-02-28T08:13:59;9.43;;;5.00;;
24153;SDS011;12312;53.362;-1.518;2023-02-28T08:16:25;11.63;;;5.15;;
24153;SDS011;12312;53.362;-1.518;2023-02-28T08:18:51;12.80;;;6.53;;
24153;SDS011;12312;53.362;-1.518;2023-02-28T08:21:18;17.17;;;6.35;;
24153;SDS011;12312;53.362;-1.518;2023-02-28T08:23:46;20.65;;;7.28;;
24153;SDS011;12312;53.362;-1.518;2023-02-28T08:26:14;22.52;;;8.02;;
24153;SDS011;12312;53.362;-1.518;2023-02-28T08:28:40;19.00;;;9.60;;
24153;SDS011;12312;53.362;-1.518;2023-02-28T08:31:09;15.75;;;7.43;;
24153;SDS011;12312;53.362;-1.518;2023-02-28T08:33:36;19.40;;;9.93;;
24153;SDS011;12312;53.362;-1.518;2023-02-28T08:36:02;19.17;;;8.43;;
24153;SDS011;12312;53.362;-1.518;2023-02-28T08:38:28;22.90;;;11.38;;
24153;SDS011;12312;53.362;-1.518;2023-02-28T08:40:57;20.73;;;8.75;;
24153;SDS011;12312;53.362;-1.518;2023-02-28T08:43:24;15.60;;;7.63;;
24153;SDS011;12312;53.362;-1.518;2023-02-28T08:45:53;27.40;;;10.75;;
24153;SDS011;12312;53.362;-1.518;2023-02-28T08:48:22;19.85;;;8.93;;
24153;SDS011;12312;53.362;-1.518;2023-02-28T08:50:55;20.45;;;8.90;;
24153;SDS011;12312;53.362;-1.518;2023-02-28T08:53:20;16.80;;;7.35;;
24153;SDS011;12312;53.362;-1.518;2023-02-28T08:55:46;17.55;;;7.82;;
24153;SDS011;12312;53.362;-1.518;2023-02-28T08:58:11;21.65;;;9.45;;
24153;SDS011;12312;53.362;-1.518;2023-02-28T09:00:37;16.23;;;7.85;;
24153;SDS011;12312;53.362;-1.518;2023-02-28T09:03:02;10.75;;;5.95;;
24153;SDS011;12312;53.362;-1.518;2023-02-28T09:05:28;16.13;;;6.45;;
24153;SDS011;12312;53.362;-1.518;2023-02-28T09:07:54;11.80;;;6.32;;
24153;SDS011;12312;53.362;-1.518;2023-02-28T09:10:20;7.75;;;4.65;;
24153;SDS011;12312;53.362;-1.518;2023-02-28T09:12:45;12.40;;;5.20;;
24153;SDS011;12312;53.362;-1.518;2023-02-28T09:15:12;10.07;;;4.15;;
24153;SDS011;12312;53.362;-1.518;2023-02-28T09:17:38;8.60;;;4.85;;
24153;SDS011;12312;53.362;-1.518;2023-02-28T09:20:03;9.98;;;5.45;;
24153;SDS011;12312;53.362;-1.518;2023-02-28T09:22:30;12.80;;;5.78;;
24153;SDS011;12312;53.362;-1.518;2023-02-28T09:24:55;12.52;;;5.28;;
24153;SDS011;12312;53.362;-1.518;2023-02-28T09:27:21;8.27;;;5.15;;
24153;SDS011;12312;53.362;-1.518;2023-02-28T09:29:46;9.52;;;5.15;;
24153;SDS011;12312;53.362;-1.518;2023-02-28T09:32:12;8.40;;;3.50;;
24153;SDS011;12312;53.362;-1.518;2023-02-28T09:34:37;9.05;;;4.80;;
24153;SDS011;12312;53.362;-1.518;2023-02-28T09:37:03;8.90;;;4.53;;
24153;SDS011;12312;53.362;-1.518;2023-02-28T09:39:29;12.05;;;5.43;;
24153;SDS011;12312;53.362;-1.518;2023-02-28T09:41:54;8.23;;;4.18;;
24153;SDS011;12312;53.362;-1.518;2023-02-28T09:47:21;8.05;;;4.43;;
24153;SDS011;12312;53.362;-1.518;2023-02-28T09:50:03;11.45;;;4.95;;
24153;SDS011;12312;53.362;-1.518;2023-02-28T09:52:41;7.13;;;4.45;;
24153;SDS011;12312;53.362;-1.518;2023-02-28T09:57:45;10.68;;;4.97;;
24153;SDS011;12312;53.362;-1.518;2023-02-28T10:03:25;11.55;;;5.35;;
24153;SDS011;12312;53.362;-1.518;2023-02-28T10:10:41;7.05;;;4.22;;
24153;SDS011;12312;53.362;-1.518;2023-02-28T10:13:15;8.77;;;5.10;;
24153;SDS011;12312;53.362;-1.518;2023-02-28T10:15:46;12.05;;;5.38;;
24153;SDS011;12312;53.362;-1.518;2023-02-28T10:18:16;11.35;;;5.38;;
24153;SDS011;12312;53.362;-1.518;2023-02-28T10:20:46;8.15;;;4.85;;
24153;SDS011;12312;53.362;-1.518;2023-02-28T10:23:19;14.90;;;5.85;;
24153;SDS011;12312;53.362;-1.518;2023-02-28T10:25:54;6.95;;;3.85;;
24153;SDS011;12312;53.362;-1.518;2023-02-28T10:28:24;8.35;;;5.22;;
24153;SDS011;12312;53.362;-1.518;2023-02-28T10:30:51;12.52;;;6.28;;
24153;SDS011;12312;53.362;-1.518;2023-02-28T10:33:34;10.18;;;6.57;;
24153;SDS011;12312;53.362;-1.518;2023-02-28T10:36:00;10.05;;;5.97;;
24153;SDS011;12312;53.362;-1.518;2023-02-28T10:38:36;12.05;;;6.70;;
24153;SDS011;12312;53.362;-1.518;2023-02-28T10:41:04;11.38;;;5.63;;
24153;SDS011;12312;53.362;-1.518;2023-02-28T10:43:33;8.00;;;4.00;;
24153;SDS011;12312;53.362;-1.518;2023-02-28T10:46:01;9.52;;;5.57;;
24153;SDS011;12312;53.362;-1.518;2023-02-28T10:49:03;7.88;;;4.07;;
24153;SDS011;12312;53.362;-1.518;2023-02-28T10:51:35;5.95;;;3.20;;
24153;SDS011;12312;53.362;-1.518;2023-02-28T10:54:03;7.97;;;4.35;;
24153;SDS011;12312;53.362;-1.518;2023-02-28T10:56:29;9.55;;;4.13;;
24153;SDS011;12312;53.362;-1.518;2023-02-28T11:01:43;6.88;;;5.60;;
24153;SDS011;12312;53.362;-1.518;2023-02-28T11:06:46;10.27;;;5.55;;
24153;SDS011;12312;53.362;-1.518;2023-02-28T11:09:18;8.20;;;4.60;;
24153;SDS011;12312;53.362;-1.518;2023-02-28T11:11:54;9.20;;;2.97;;
24153;SDS011;12312;53.362;-1.518;2023-02-28T11:14:21;6.65;;;3.78;;
24153;SDS011;12312;53.362;-1.518;2023-02-28T11:16:49;5.70;;;3.25;;
24153;SDS011;12312;53.362;-1.518;2023-02-28T11:19:17;7.22;;;3.22;;
24153;SDS011;12312;53.362;-1.518;2023-02-28T11:21:49;5.57;;;3.15;;
24153;SDS011;12312;53.362;-1.518;2023-02-28T11:24:40;7.32;;;3.35;;
24153;SDS011;12312;53.362;-1.518;2023-02-28T11:29:57;4.90;;;2.38;;
24153;SDS011;12312;53.362;-1.518;2023-02-28T11:32:27;4.22;;;2.95;;
24153;SDS011;12312;53.362;-1.518;2023-02-28T11:37:30;5.50;;;2.15;;
24153;SDS011;12312;53.362;-1.518;2023-02-28T11:39:57;5.20;;;2.90;;
24153;SDS011;12312;53.362;-1.518;2023-02-28T11:51:31;3.78;;;2.60;;
24153;SDS011;12312;53.362;-1.518;2023-02-28T11:53:39;3.17;;;2.20;;
24153;SDS011;12312;53.362;-1.518;2023-02-28T12:04:53;6.47;;;2.10;;
24153;SDS011;12312;53.362;-1.518;2023-02-28T12:27:00;2.60;;;1.88;;
24153;SDS011;12312;53.362;-1.518;2023-02-28T12:29:33;5.15;;;2.15;;
24153;SDS011;12312;53.362;-1.518;2023-02-28T12:32:09;8.53;;;2.67;;
24153;SDS011;12312;53.362;-1.518;2023-02-28T12:35:23;3.40;;;1.87;;
24153;SDS011;12312;53.362;-1.518;2023-02-28T12:40:47;3.05;;;2.53;;
24153;SDS011;12312;53.362;-1.518;2023-02-28T12:43:19;3.38;;;1.77;;
24153;SDS011;12312;53.362;-1.518;2023-02-28T12:45:56;5.18;;;2.03;;
24153;SDS011;12312;53.362;-1.518;2023-02-28T12:48:37;3.50;;;2.20;;
24153;SDS011;12312;53.362;-1.518;2023-02-28T12:51:07;2.78;;;2.28;;
24153;SDS011;12312;53.362;-1.518;2023-02-28T12:56:21;3.85;;;2.80;;
24153;SDS011;12312;53.362;-1.518;2023-02-28T12:58:56;2.90;;;2.35;;
24153;SDS011;12312;53.362;-1.518;2023-02-28T13:09:51;3.70;;;2.70;;
24153;SDS011;12312;53.362;-1.518;2023-02-28T13:12:21;5.10;;;3.20;;
24153;SDS011;12312;53.362;-1.518;2023-02-28T13:14:48;5.97;;;4.18;;
24153;SDS011;12312;53.362;-1.518;2023-02-28T13:17:21;4.90;;;3.67;;
24153;SDS011;12312;53.362;-1.518;2023-02-28T13:22:20;4.30;;;2.97;;
24153;SDS011;12312;53.362;-1.518;2023-02-28T13:25:13;7.57;;;3.65;;
24153;SDS011;12312;53.362;-1.518;2023-02-28T13:27:54;7.80;;;3.15;;
24153;SDS011;12312;53.362;-1.518;2023-02-28T13:33:37;6.57;;;4.13;;
24153;SDS011;12312;53.362;-1.518;2023-02-28T13:36:26;3.72;;;2.83;;
24153;SDS011;12312;53.362;-1.518;2023-02-28T13:38:55;5.85;;;3.42;;
24153;SDS011;12312;53.362;-1.518;2023-02-28T13:46:37;3.85;;;3.45;;
24153;SDS011;12312;53.362;-1.518;2023-02-28T14:05:13;1.95;;;1.33;;
24153;SDS011;12312;53.362;-1.518;2023-02-28T14:07:42;1.63;;;1.15;;
24153;SDS011;12312;53.362;-1.518;2023-02-28T14:10:23;3.00;;;2.30;;
24153;SDS011;12312;53.362;-1.518;2023-02-28T14:12:56;2.45;;;1.80;;
24153;SDS011;12312;53.362;-1.518;2023-02-28T14:17:56;11.73;;;3.08;;
24153;SDS011;12312;53.362;-1.518;2023-02-28T14:20:26;7.50;;;3.03;;
24153;SDS011;12312;53.362;-1.518;2023-02-28T14:31:18;13.48;;;6.30;;
24153;SDS011;12312;53.362;-1.518;2023-02-28T14:36:44;8.63;;;4.60;;
24153;SDS011;12312;53.362;-1.518;2023-02-28T14:39:14;17.30;;;4.95;;
24153;SDS011;12312;53.362;-1.518;2023-02-28T14:41:44;7.32;;;4.50;;
24153;SDS011;12312;53.362;-1.518;2023-02-28T14:44:19;6.68;;;4.05;;
24153;SDS011;12312;53.362;-1.518;2023-02-28T14:46:52;9.82;;;3.53;;
24153;SDS011;12312;53.362;-1.518;2023-02-28T14:49:26;9.85;;;4.30;;
24153;SDS011;12312;53.362;-1.518;2023-02-28T14:52:28;47.00;;;5.40;;
24153;SDS011;12312;53.362;-1.518;2023-02-28T14:55:04;7.20;;;2.72;;
24153;SDS011;12312;53.362;-1.518;2023-02-28T14:57:33;4.68;;;2.40;;
24153;SDS011;12312;53.362;-1.518;2023-02-28T15:00:16;71.70;;;7.22;;
24153;SDS011;12312;53.362;-1.518;2023-02-28T15:02:46;7.35;;;3.20;;
24153;SDS011;12312;53.362;-1.518;2023-02-28T15:07:37;14.10;;;3.70;;
24153;SDS011;12312;53.362;-1.518;2023-02-28T15:12:51;5.45;;;3.22;;
24153;SDS011;12312;53.362;-1.518;2023-02-28T15:15:17;5.43;;;3.53;;
24153;SDS011;12312;53.362;-1.518;2023-02-28T15:17:46;6.88;;;3.95;;
24153;SDS011;12312;53.362;-1.518;2023-02-28T15:20:15;13.60;;;4.82;;
24153;SDS011;12312;53.362;-1.518;2023-02-28T15:22:43;12.57;;;3.28;;
24153;SDS011;12312;53.362;-1.518;2023-02-28T15:25:13;86.53;;;7.63;;
24153;SDS011;12312;53.362;-1.518;2023-02-28T15:27:47;116.78;;;9.40;;
24153;SDS011;12312;53.362;-1.518;2023-02-28T15:30:19;6.43;;;3.25;;
24153;SDS011;12312;53.362;-1.518;2023-02-28T15:33:06;4.15;;;2.95;;
24153;SDS011;12312;53.362;-1.518;2023-02-28T15:35:33;6.93;;;3.10;;
24153;SDS011;12312;53.362;-1.518;2023-02-28T15:38:13;7.22;;;3.63;;
24153;SDS011;12312;53.362;-1.518;2023-02-28T15:40:54;5.05;;;2.70;;
24153;SDS011;12312;53.362;-1.518;2023-02-28T15:45:56;9.40;;;3.55;;
24153;SDS011;12312;53.362;-1.518;2023-02-28T15:48:24;9.30;;;2.55;;
24153;SDS011;12312;53.362;-1.518;2023-02-28T15:51:02;5.18;;;2.40;;
24153;SDS011;12312;53.362;-1.518;2023-02-28T15:54:05;7.95;;;2.10;;
24153;SDS011;12312;53.362;-1.518;2023-02-28T15:56:37;50.95;;;4.28;;
24153;SDS011;12312;53.362;-1.518;2023-02-28T15:59:12;52.67;;;4.13;;
24153;SDS011;12312;53.362;-1.518;2023-02-28T16:01:41;5.95;;;2.75;;
24153;SDS011;12312;53.362;-1.518;2023-02-28T16:04:15;7.13;;;3.30;;
24153;SDS011;12312;53.362;-1.518;2023-02-28T16:06:42;5.60;;;3.63;;
24153;SDS011;12312;53.362;-1.518;2023-02-28T16:09:09;4.65;;;2.67;;
24153;SDS011;12312;53.362;-1.518;2023-02-28T16:11:40;5.13;;;3.10;;
24153;SDS011;12312;53.362;-1.518;2023-02-28T16:14:24;12.57;;;3.85;;
24153;SDS011;12312;53.362;-1.518;2023-02-28T16:17:05;4.00;;;2.42;;
24153;SDS011;12312;53.362;-1.518;2023-02-28T16:19:34;4.43;;;3.15;;
24153;SDS011;12312;53.362;-1.518;2023-02-28T16:21:59;10.77;;;4.13;;
24153;SDS011;12312;53.362;-1.518;2023-02-28T16:24:26;5.97;;;4.20;;
24153;SDS011;12312;53.362;-1.518;2023-02-28T16:26:52;4.45;;;2.90;;
24153;SDS011;12312;53.362;-1.518;2023-02-28T16:29:29;5.60;;;3.60;;
24153;SDS011;12312;53.362;-1.518;2023-02-28T16:31:57;4.25;;;3.05;;
24153;SDS011;12312;53.362;-1.518;2023-02-28T16:34:24;4.72;;;3.17;;
24153;SDS011;12312;53.362;-1.518;2023-02-28T16:36:49;5.60;;;3.97;;
24153;SDS011;12312;53.362;-1.518;2023-02-28T16:39:15;8.75;;;3.78;;
24153;SDS011;12312;53.362;-1.518;2023-02-28T16:41:42;8.27;;;3.42;;
24153;SDS011;12312;53.362;-1.518;2023-02-28T16:44:11;4.45;;;2.42;;
24153;SDS011;12312;53.362;-1.518;2023-02-28T16:46:39;5.50;;;3.22;;
24153;SDS011;12312;53.362;-1.518;2023-02-28T16:49:04;4.65;;;2.28;;
24153;SDS011;12312;53.362;-1.518;2023-02-28T16:51:37;4.47;;;2.90;;
24153;SDS011;12312;53.362;-1.518;2023-02-28T16:54:02;6.88;;;3.05;;
24153;SDS011;12312;53.362;-1.518;2023-02-28T16:56:28;5.28;;;3.33;;
24153;SDS011;12312;53.362;-1.518;2023-02-28T16:58:54;4.25;;;3.17;;
24153;SDS011;12312;53.362;-1.518;2023-02-28T17:01:24;10.32;;;5.88;;
24153;SDS011;12312;53.362;-1.518;2023-02-28T17:03:50;8.43;;;5.30;;
24153;SDS011;12312;53.362;-1.518;2023-02-28T17:06:19;7.05;;;4.25;;
24153;SDS011;12312;53.362;-1.518;2023-02-28T17:08:50;5.50;;;3.15;;
24153;SDS011;12312;53.362;-1.518;2023-02-28T17:11:17;8.70;;;4.60;;
24153;SDS011;12312;53.362;-1.518;2023-02-28T17:13:43;6.85;;;4.00;;
24153;SDS011;12312;53.362;-1.518;2023-02-28T17:16:20;13.43;;;4.03;;
24153;SDS011;12312;53.362;-1.518;2023-02-28T17:18:53;6.72;;;4.38;;